createdAt,value
2017-12-30T00:01:22.954Z,86.46
2017-12-30T00:03:51.612Z,86.79
2017-12-30T00:06:17.449Z,86.10
2017-12-30T00:08:46.387Z,85.06
2017-12-30T00:11:12.205Z,84.36
2017-12-30T00:13:40.949Z,83.93
2017-12-30T00:16:06.794Z,82.75
2017-12-30T00:21:03.652Z,82.43
2017-12-30T00:23:29.495Z,82.52
2017-12-30T00:25:55.298Z,82.90
2017-12-30T00:28:21.160Z,83.20
2017-12-30T00:30:47.551Z,83.38
2017-12-30T00:33:13.393Z,84.08
2017-12-30T00:35:42.367Z,84.24
2017-12-30T00:38:08.189Z,84.18
2017-12-30T00:40:37.577Z,84.37
2017-12-30T00:43:03.439Z,84.67
2017-12-30T00:45:32.398Z,84.83
2017-12-30T00:47:58.196Z,84.04
2017-12-30T00:50:27.036Z,83.54
2017-12-30T00:52:52.886Z,83.39
2017-12-30T00:55:22.598Z,83.53
2017-12-30T00:57:48.419Z,83.60
2017-12-30T01:00:14.249Z,83.71
2017-12-30T01:02:40.040Z,83.62
2017-12-30T01:05:05.866Z,83.44
2017-12-30T01:07:33.661Z,83.55
2017-12-30T01:09:59.523Z,83.32
2017-12-30T01:12:28.613Z,83.55
2017-12-30T01:14:54.446Z,83.32
2017-12-30T01:17:23.901Z,83.00
2017-12-30T01:19:49.756Z,82.95
2017-12-30T01:22:18.940Z,82.70
2017-12-30T01:24:44.771Z,83.06
2017-12-30T01:27:12.824Z,82.80
2017-12-30T01:29:38.655Z,82.55
2017-12-30T01:32:07.562Z,82.92
2017-12-30T01:34:33.368Z,82.48
2017-12-30T01:36:59.233Z,82.63
2017-12-30T01:39:25.052Z,82.44
2017-12-30T01:41:50.870Z,82.50
2017-12-30T01:44:20.032Z,82.63
2017-12-30T01:46:45.827Z,82.54
2017-12-30T01:49:13.118Z,82.49
2017-12-30T01:51:38.959Z,82.51
2017-12-30T01:54:08.553Z,82.22
2017-12-30T01:56:34.384Z,82.08
2017-12-30T01:59:03.352Z,82.08
2017-12-30T02:01:29.222Z,82.20
2017-12-30T02:03:59.006Z,82.25
2017-12-30T02:06:24.828Z,82.94
2017-12-30T02:08:52.379Z,82.82
2017-12-30T02:11:18.277Z,83.49
2017-12-30T02:13:44.092Z,83.64
2017-12-30T02:16:10.119Z,83.52
2017-12-30T02:18:35.936Z,83.45
2017-12-30T02:21:05.025Z,83.84
2017-12-30T02:23:30.867Z,84.66
2017-12-30T02:26:00.019Z,85.43
2017-12-30T02:28:25.852Z,85.28
2017-12-30T02:30:53.525Z,85.09
2017-12-30T02:33:19.337Z,84.46
2017-12-30T02:35:48.642Z,84.69
2017-12-30T02:38:14.474Z,84.57
2017-12-30T02:40:44.173Z,84.87
2017-12-30T02:43:10.081Z,84.67
2017-12-30T02:45:37.481Z,84.92
2017-12-30T02:48:03.294Z,85.41
2017-12-30T02:50:29.141Z,85.35
2017-12-30T02:52:54.989Z,85.91
2017-12-30T02:55:20.850Z,86.32
2017-12-30T02:57:49.961Z,86.87
2017-12-30T03:00:15.861Z,87.05
2017-12-30T03:02:44.175Z,87.54
2017-12-30T03:05:10.099Z,87.81
2017-12-30T03:07:39.046Z,87.80
2017-12-30T03:10:04.884Z,88.18
2017-12-30T03:12:33.808Z,88.38
2017-12-30T03:14:59.654Z,88.34
2017-12-30T03:17:28.498Z,88.28
2017-12-30T03:19:54.308Z,88.29
2017-12-30T03:22:23.903Z,88.21
2017-12-30T03:24:49.712Z,87.96
2017-12-30T03:27:16.614Z,88.17
2017-12-30T03:29:42.420Z,88.02
2017-12-30T03:32:08.252Z,88.00
2017-12-30T03:34:34.072Z,87.86
2017-12-30T03:36:59.885Z,87.83
2017-12-30T03:39:29.379Z,87.98
2017-12-30T03:41:55.246Z,88.03
2017-12-30T03:44:24.979Z,88.21
2017-12-30T03:46:50.775Z,88.36
2017-12-30T03:49:18.611Z,88.41
2017-12-30T03:51:44.407Z,88.67
2017-12-30T03:54:14.622Z,88.95
2017-12-30T03:56:40.414Z,89.21
2017-12-30T03:59:07.940Z,89.37
2017-12-30T04:01:33.736Z,89.33
2017-12-30T04:03:59.555Z,89.54
2017-12-30T04:06:25.392Z,89.64
2017-12-30T04:08:51.233Z,89.88
2017-12-30T04:11:19.645Z,89.73
2017-12-30T04:13:45.458Z,89.63
2017-12-30T04:16:14.890Z,89.48
2017-12-30T04:18:40.701Z,89.37
2017-12-30T04:21:09.766Z,89.18
2017-12-30T04:23:35.569Z,89.17
2017-12-30T04:26:05.457Z,89.35
2017-12-30T04:28:31.290Z,89.37
2017-12-30T04:30:59.049Z,89.38
2017-12-30T04:33:24.837Z,89.51
2017-12-30T04:35:53.872Z,89.54
2017-12-30T04:38:19.684Z,89.24
2017-12-30T04:40:45.488Z,89.28
2017-12-30T04:43:11.307Z,89.34
2017-12-30T04:45:37.082Z,89.12
2017-12-30T04:48:04.790Z,88.85
2017-12-30T04:50:30.617Z,88.53
2017-12-30T04:52:59.490Z,88.52
2017-12-30T04:55:25.296Z,88.39
2017-12-30T04:57:54.119Z,88.64
2017-12-30T05:00:19.931Z,88.98
2017-12-30T05:02:49.256Z,89.16
2017-12-30T05:05:15.078Z,89.11
2017-12-30T05:07:43.995Z,89.20
2017-12-30T05:10:09.834Z,88.87
2017-12-30T05:12:39.702Z,88.59
2017-12-30T05:15:05.527Z,88.52
2017-12-30T05:17:31.345Z,87.95
2017-12-30T05:19:57.148Z,87.93
2017-12-30T05:22:23.006Z,88.01
2017-12-30T05:24:51.877Z,87.99
2017-12-30T05:27:17.733Z,87.87
2017-12-30T05:29:45.130Z,87.72
2017-12-30T05:32:10.954Z,87.66
2017-12-30T05:34:40.438Z,87.50
2017-12-30T05:37:06.301Z,87.54
2017-12-30T05:39:35.225Z,87.59
2017-12-30T05:42:01.054Z,87.56
2017-12-30T05:44:29.001Z,87.54
2017-12-30T05:46:54.856Z,87.65
2017-12-30T05:49:24.185Z,87.77
2017-12-30T05:51:50.060Z,87.50
2017-12-30T05:54:15.941Z,87.62
2017-12-30T05:56:41.737Z,87.31
2017-12-30T05:59:07.554Z,87.21
2017-12-30T06:01:37.270Z,86.92
2017-12-30T06:04:03.143Z,86.89
2017-12-30T06:06:30.714Z,86.99
2017-12-30T06:08:56.569Z,86.90
2017-12-30T06:11:25.908Z,86.85
2017-12-30T06:13:51.746Z,86.89
2017-12-30T06:16:19.741Z,86.81
2017-12-30T06:18:45.569Z,86.80
2017-12-30T06:21:14.726Z,86.50
2017-12-30T06:23:40.573Z,86.80
2017-12-30T06:26:09.223Z,86.81
2017-12-30T06:28:35.017Z,86.78
2017-12-30T06:31:00.859Z,87.00
2017-12-30T06:33:26.689Z,86.92
2017-12-30T06:35:52.531Z,86.84
2017-12-30T06:38:21.483Z,87.16
2017-12-30T06:40:47.278Z,87.19
2017-12-30T06:43:16.337Z,86.95
2017-12-30T06:45:42.205Z,87.02
2017-12-30T06:48:11.845Z,87.02
2017-12-30T06:50:37.669Z,87.31
2017-12-30T06:53:05.406Z,87.34
2017-12-30T06:55:31.220Z,87.48
2017-12-30T06:58:01.065Z,87.50
2017-12-30T07:00:26.880Z,87.79
2017-12-30T07:02:54.413Z,87.91
2017-12-30T07:05:20.258Z,88.41
2017-12-30T07:07:46.082Z,88.19
2017-12-30T07:10:11.930Z,88.51
2017-12-30T07:12:37.790Z,88.70
2017-12-30T07:15:07.445Z,88.35
2017-12-30T07:17:33.302Z,88.47
2017-12-30T07:20:00.951Z,88.51
2017-12-30T07:22:26.787Z,88.56
2017-12-30T07:24:59.463Z,88.67
2017-12-30T07:27:25.289Z,88.69
2017-12-30T07:29:51.089Z,88.46
2017-12-30T07:32:16.896Z,88.80
2017-12-30T07:34:46.431Z,88.72
2017-12-30T07:37:12.299Z,88.84
2017-12-30T07:39:39.840Z,89.10
2017-12-30T07:42:05.672Z,89.31
2017-12-30T07:44:31.492Z,89.40
2017-12-30T07:46:57.320Z,89.15
2017-12-30T07:49:23.167Z,89.37
2017-12-30T07:51:52.749Z,89.41
2017-12-30T07:54:18.528Z,89.27
2017-12-30T07:56:46.284Z,89.26
2017-12-30T07:59:12.106Z,89.30
2017-12-30T08:01:41.428Z,89.28
2017-12-30T08:04:07.312Z,89.60
2017-12-30T08:06:36.762Z,89.42
2017-12-30T08:09:02.625Z,89.45
2017-12-30T08:11:30.554Z,89.43
2017-12-30T08:13:56.384Z,89.61
2017-12-30T08:16:24.860Z,89.24
2017-12-30T08:18:50.732Z,89.62
2017-12-30T08:21:16.570Z,89.26
2017-12-30T08:23:42.394Z,89.21
2017-12-30T08:26:08.179Z,89.26
2017-12-30T08:28:37.596Z,89.24
2017-12-30T08:31:03.470Z,89.18
2017-12-30T08:33:33.174Z,89.32
2017-12-30T08:35:58.952Z,89.55
2017-12-30T08:38:27.965Z,89.52
2017-12-30T08:40:53.817Z,89.42
2017-12-30T08:43:21.279Z,89.80
2017-12-30T08:45:47.118Z,89.82
2017-12-30T08:48:16.225Z,90.10
2017-12-30T08:50:42.030Z,90.03
2017-12-30T08:53:11.467Z,90.32
2017-12-30T08:55:37.338Z,90.44
2017-12-30T08:58:03.166Z,90.55
2017-12-30T09:00:29.029Z,90.49
2017-12-30T09:02:54.903Z,90.39
2017-12-30T09:05:22.285Z,90.55
2017-12-30T09:07:48.170Z,90.51
2017-12-30T09:10:16.810Z,90.25
2017-12-30T09:12:42.645Z,89.62
2017-12-30T09:15:11.779Z,89.80
2017-12-30T09:17:37.655Z,89.63
2017-12-30T09:20:06.297Z,89.63
2017-12-30T09:22:32.093Z,89.53
2017-12-30T09:25:01.628Z,89.69
2017-12-30T09:27:27.468Z,89.96
2017-12-30T09:29:56.397Z,89.78
2017-12-30T09:32:22.195Z,89.66
2017-12-30T09:34:47.978Z,89.78
2017-12-30T09:37:13.848Z,89.40
2017-12-30T09:39:39.701Z,89.41
2017-12-30T09:42:07.238Z,89.58
2017-12-30T09:44:33.115Z,89.57
2017-12-30T09:49:29.807Z,88.89
2017-12-30T09:51:57.416Z,88.99
2017-12-30T09:54:23.211Z,88.95
2017-12-30T09:56:52.086Z,89.07
2017-12-30T09:59:17.956Z,89.04
2017-12-30T10:01:47.251Z,89.01
2017-12-30T10:04:13.117Z,89.21
2017-12-30T10:06:42.440Z,88.95
2017-12-30T10:09:08.297Z,88.78
2017-12-30T10:11:34.137Z,88.34
2017-12-30T10:13:59.960Z,88.22
2017-12-30T10:16:25.844Z,88.10
2017-12-30T10:18:53.268Z,88.28
2017-12-30T10:21:19.114Z,88.31
2017-12-30T10:23:47.803Z,87.93
2017-12-30T10:26:13.614Z,88.10
2017-12-30T10:28:42.402Z,87.60
2017-12-30T10:31:08.221Z,87.42
2017-12-30T10:33:37.538Z,88.02
2017-12-30T10:36:03.433Z,88.04
2017-12-30T10:38:33.150Z,88.03
2017-12-30T10:40:58.968Z,87.56
2017-12-30T10:43:26.743Z,87.90
2017-12-30T10:45:52.623Z,88.24
2017-12-30T10:48:18.455Z,88.36
2017-12-30T10:50:44.255Z,88.41
2017-12-30T10:53:10.097Z,87.90
2017-12-30T10:55:39.052Z,87.98
2017-12-30T10:58:04.870Z,88.01
2017-12-30T11:00:40.656Z,88.53
2017-12-30T11:03:06.458Z,88.68
2017-12-30T11:05:32.297Z,89.17
2017-12-30T11:07:58.132Z,89.57
2017-12-30T11:10:24.013Z,89.53
2017-12-30T11:12:49.850Z,89.59
2017-12-30T11:15:17.063Z,89.87
2017-12-30T11:17:42.908Z,89.34
2017-12-30T11:20:12.572Z,89.25
2017-12-30T11:22:38.397Z,89.86
2017-12-30T11:25:04.252Z,89.28
2017-12-30T11:27:30.106Z,89.00
2017-12-30T11:29:55.944Z,88.73
2017-12-30T11:32:23.548Z,88.71
2017-12-30T11:34:49.403Z,88.38
2017-12-30T11:37:18.075Z,89.28
2017-12-30T11:39:43.882Z,89.56
2017-12-30T11:42:13.336Z,89.73
2017-12-30T11:44:39.141Z,90.54
2017-12-30T11:47:08.890Z,92.40
2017-12-30T11:49:34.718Z,91.55
2017-12-30T11:52:02.494Z,91.86
2017-12-30T11:54:28.303Z,90.14
2017-12-30T11:56:58.098Z,88.06
2017-12-30T11:59:23.889Z,86.25
2017-12-30T12:01:49.714Z,85.05
2017-12-30T12:04:15.526Z,83.90
2017-12-30T12:06:41.329Z,83.75
2017-12-30T12:09:10.586Z,83.41
2017-12-30T12:11:36.445Z,83.24
2017-12-30T12:14:04.150Z,82.85
2017-12-30T12:16:29.921Z,82.47
2017-12-30T12:18:59.392Z,82.21
2017-12-30T12:21:25.179Z,81.91
2017-12-30T12:23:52.824Z,82.59
2017-12-30T12:26:18.603Z,83.45
2017-12-30T12:31:15.257Z,85.96
2017-12-30T12:33:42.990Z,86.96
2017-12-30T12:36:08.830Z,87.63
2017-12-30T12:38:34.695Z,87.68
2017-12-30T12:41:00.527Z,87.10
2017-12-30T12:43:26.369Z,86.33
2017-12-30T12:45:54.078Z,85.34
2017-12-30T12:48:19.934Z,84.62
2017-12-30T12:50:49.233Z,83.69
2017-12-30T12:53:15.052Z,81.98
2017-12-30T12:55:44.797Z,81.29
2017-12-30T12:58:10.587Z,80.27
2017-12-30T13:00:38.248Z,79.87
2017-12-30T13:03:04.080Z,79.38
2017-12-30T13:05:33.314Z,79.35
2017-12-30T13:07:59.225Z,78.58
2017-12-30T13:10:28.385Z,78.62
2017-12-30T13:12:54.246Z,78.80
2017-12-30T13:15:20.096Z,78.86
2017-12-30T13:17:45.909Z,78.49
2017-12-30T13:20:11.732Z,78.65
2017-12-30T13:22:39.723Z,78.36
2017-12-30T13:25:05.503Z,78.11
2017-12-30T13:27:34.976Z,78.18
2017-12-30T13:30:00.810Z,78.34
2017-12-30T13:32:29.761Z,78.71
2017-12-30T13:34:55.628Z,77.97
2017-12-30T13:37:23.274Z,78.36
2017-12-30T13:39:49.125Z,78.74
2017-12-30T13:42:15.692Z,79.63
2017-12-30T13:44:41.525Z,80.35
2017-12-30T13:47:07.338Z,81.11
2017-12-30T13:49:34.892Z,81.43
2017-12-30T13:52:00.739Z,81.71
2017-12-30T13:54:27.316Z,81.93
2017-12-30T13:56:53.115Z,81.96
2017-12-30T13:59:18.904Z,82.06
2017-12-30T14:01:48.232Z,82.21
2017-12-30T14:04:14.054Z,82.40
2017-12-30T14:06:41.803Z,82.46
2017-12-30T14:09:07.636Z,82.40
2017-12-30T14:11:36.860Z,82.54
2017-12-30T14:14:02.756Z,82.41
2017-12-30T14:16:30.929Z,82.45
2017-12-30T14:18:56.754Z,82.54
2017-12-30T14:23:53.391Z,82.23
2017-12-30T14:26:20.728Z,82.16
2017-12-30T14:28:46.540Z,82.05
2017-12-30T14:31:16.677Z,81.96
2017-12-30T14:33:42.469Z,82.11
2017-12-30T14:36:10.104Z,82.15
2017-12-30T14:38:35.941Z,82.49
2017-12-30T14:41:04.361Z,82.54
2017-12-30T14:43:30.240Z,82.37
2017-12-30T14:48:27.045Z,80.55
2017-12-30T14:50:55.906Z,77.98
2017-12-30T14:53:21.762Z,77.97
2017-12-30T14:55:49.334Z,76.81
2017-12-30T14:58:15.157Z,76.44
2017-12-30T15:00:44.646Z,76.12
2017-12-30T15:03:10.489Z,76.44
2017-12-30T15:05:36.316Z,76.94
2017-12-30T15:08:02.130Z,77.35
2017-12-30T15:10:27.958Z,77.64
2017-12-30T15:12:55.212Z,77.71
2017-12-30T15:15:21.015Z,77.82
2017-12-30T15:17:50.391Z,77.98
2017-12-30T15:20:16.222Z,78.04
2017-12-30T15:22:45.569Z,77.94
2017-12-30T15:25:11.405Z,77.98
2017-12-30T15:27:40.762Z,78.10
2017-12-30T15:30:06.633Z,78.06
2017-12-30T15:32:36.097Z,78.02
2017-12-30T15:35:01.933Z,78.36
2017-12-30T15:37:29.189Z,78.82
2017-12-30T15:39:55.038Z,78.94
2017-12-30T15:42:20.854Z,79.10
2017-12-30T15:44:46.675Z,79.43
2017-12-30T15:47:12.544Z,79.58
2017-12-30T15:49:41.788Z,79.73
2017-12-30T15:52:07.588Z,80.03
2017-12-30T15:54:35.185Z,80.09
2017-12-30T15:57:00.982Z,80.09
2017-12-30T15:59:27.574Z,79.85
2017-12-30T16:01:55.490Z,79.74
2017-12-30T16:06:52.201Z,78.83
2017-12-30T16:09:19.901Z,78.55
2017-12-30T16:11:45.776Z,78.24
2017-12-30T16:14:14.084Z,78.11
2017-12-30T16:16:39.880Z,77.92
2017-12-30T16:19:05.693Z,77.30
2017-12-30T16:21:31.521Z,77.31
2017-12-30T16:23:57.382Z,76.85
2017-12-30T16:26:27.147Z,76.65
2017-12-30T16:28:52.992Z,76.38
2017-12-30T16:31:21.685Z,76.32
2017-12-30T16:33:47.502Z,75.81
2017-12-30T16:36:16.666Z,75.79
2017-12-30T16:38:42.484Z,75.80
2017-12-30T16:41:10.213Z,75.54
2017-12-30T16:43:36.056Z,75.36
2017-12-30T16:46:05.401Z,75.66
2017-12-30T16:48:31.236Z,76.01
2017-12-30T16:51:00.509Z,76.14
2017-12-30T16:53:26.348Z,75.77
2017-12-30T16:55:52.209Z,75.69
2017-12-30T16:58:18.074Z,76.10
2017-12-30T17:00:43.917Z,75.86
2017-12-30T17:03:12.956Z,75.75
2017-12-30T17:05:38.785Z,75.89
2017-12-30T17:08:06.149Z,76.18
2017-12-30T17:10:32.013Z,76.02
2017-12-30T17:13:00.452Z,76.09
2017-12-30T17:15:26.272Z,76.20
2017-12-30T17:20:22.899Z,76.68
2017-12-30T17:22:51.797Z,77.22
2017-12-30T17:25:17.624Z,77.51
2017-12-30T17:27:46.457Z,78.06
2017-12-30T17:30:12.305Z,78.48
2017-12-30T17:32:38.133Z,78.92
2017-12-30T17:35:03.970Z,79.21
2017-12-30T17:37:29.790Z,79.46
2017-12-30T17:39:56.765Z,80.01
2017-12-30T17:42:22.621Z,80.48
2017-12-30T17:44:51.813Z,80.60
2017-12-30T17:47:17.665Z,80.60
2017-12-30T17:49:47.254Z,80.49
2017-12-30T17:52:13.089Z,80.16
2017-12-30T17:54:42.528Z,80.17
2017-12-30T17:57:08.345Z,79.68
2017-12-30T17:59:35.575Z,79.96
2017-12-30T18:02:01.426Z,80.88
2017-12-30T18:04:30.778Z,81.75
2017-12-30T18:06:56.629Z,82.59
2017-12-30T18:09:22.489Z,82.96
2017-12-30T18:11:48.301Z,83.51
2017-12-30T18:14:14.124Z,83.85
2017-12-30T18:16:41.830Z,83.94
2017-12-30T18:19:07.691Z,84.55
2017-12-30T18:21:36.552Z,84.80
2017-12-30T18:24:02.400Z,85.21
2017-12-30T18:26:31.918Z,85.79
2017-12-30T18:28:57.770Z,86.39
2017-12-30T18:31:27.345Z,87.07
2017-12-30T18:33:53.338Z,87.69
2017-12-30T18:36:21.113Z,88.20
2017-12-30T18:38:46.940Z,88.59
2017-12-30T18:41:16.485Z,88.73
2017-12-30T18:43:42.363Z,88.87
2017-12-30T18:46:08.226Z,89.07
2017-12-30T18:48:34.029Z,89.74
2017-12-30T18:50:59.869Z,90.41
2017-12-30T18:53:28.869Z,90.91
2017-12-30T18:55:54.674Z,91.28
2017-12-30T18:58:22.111Z,91.27
2017-12-30T19:00:47.954Z,91.51
2017-12-30T19:03:17.467Z,91.69
2017-12-30T19:05:43.295Z,92.41
2017-12-30T19:08:12.742Z,92.30
2017-12-30T19:10:38.572Z,92.59
2017-12-30T19:13:06.233Z,92.86
2017-12-30T19:15:32.084Z,93.17
2017-12-30T19:18:00.954Z,93.31
2017-12-30T19:20:26.774Z,93.45
2017-12-30T19:22:52.588Z,93.77
2017-12-30T19:25:18.397Z,94.09
2017-12-30T19:27:44.220Z,94.20
2017-12-30T19:30:14.038Z,94.47
2017-12-30T19:32:39.859Z,94.62
2017-12-30T19:35:08.931Z,94.69
2017-12-30T19:37:34.716Z,94.82
2017-12-30T19:40:02.110Z,95.03
2017-12-30T19:42:27.953Z,95.19
2017-12-30T19:44:57.216Z,95.19
2017-12-30T19:47:23.049Z,95.29
2017-12-30T19:49:52.835Z,95.26
2017-12-30T19:52:18.643Z,95.48
2017-12-30T19:54:47.940Z,95.63
2017-12-30T19:57:13.769Z,95.40
2017-12-30T19:59:39.573Z,95.36
2017-12-30T20:02:05.441Z,95.50
2017-12-30T20:04:31.236Z,95.63
2017-12-30T20:06:57.867Z,95.83
2017-12-30T20:09:23.700Z,95.81
2017-12-30T20:11:52.158Z,95.88
2017-12-30T20:14:18.027Z,96.01
2017-12-30T20:19:24.760Z,96.20
2017-12-30T20:21:50.649Z,96.32
2017-12-30T20:24:16.470Z,96.53
2017-12-30T20:26:42.310Z,96.55
2017-12-30T20:29:08.174Z,96.66
2017-12-30T20:31:34.000Z,96.71
2017-12-30T20:33:59.824Z,96.80
2017-12-30T20:36:25.641Z,96.69
2017-12-30T20:38:51.544Z,96.70
2017-12-30T20:41:17.330Z,96.95
2017-12-30T20:43:43.144Z,96.85
2017-12-30T20:46:08.963Z,96.88
2017-12-30T20:48:37.686Z,96.88
2017-12-30T20:51:03.508Z,97.02
2017-12-30T20:53:32.315Z,97.14
2017-12-30T20:55:58.142Z,97.31
2017-12-30T20:58:27.952Z,97.39
2017-12-30T21:00:53.744Z,97.70
2017-12-30T21:03:22.611Z,97.64
2017-12-30T21:05:48.409Z,97.71
2017-12-30T21:08:18.014Z,97.57
2017-12-30T21:10:43.849Z,97.42
2017-12-30T21:13:09.702Z,97.29
2017-12-30T21:15:35.519Z,97.08
2017-12-30T21:18:01.334Z,96.64
2017-12-30T21:20:28.570Z,96.51
2017-12-30T21:22:54.430Z,96.56
2017-12-30T21:25:23.674Z,96.36
2017-12-30T21:27:49.558Z,96.31
2017-12-30T21:30:18.539Z,96.30
2017-12-30T21:32:44.411Z,96.37
2017-12-30T21:35:12.469Z,96.37
2017-12-30T21:37:38.288Z,96.47
2017-12-30T21:40:06.941Z,96.39
2017-12-30T21:42:32.776Z,96.22
2017-12-30T21:47:29.516Z,96.05
2017-12-30T21:49:55.392Z,95.80
2017-12-30T21:52:21.209Z,95.64
2017-12-30T21:54:47.038Z,95.32
2017-12-30T21:57:13.740Z,95.23
2017-12-30T21:59:39.618Z,95.04
2017-12-30T22:02:08.680Z,95.21
2017-12-30T22:04:34.490Z,95.14
2017-12-30T22:07:03.095Z,94.56
2017-12-30T22:09:28.906Z,94.20
2017-12-30T22:11:58.167Z,94.10
2017-12-30T22:14:24.025Z,94.25
2017-12-30T22:16:53.980Z,94.16
2017-12-30T22:19:19.832Z,93.98
2017-12-30T22:21:48.685Z,93.97
2017-12-30T22:24:14.507Z,93.81
2017-12-30T22:26:40.320Z,93.38
2017-12-30T22:29:06.136Z,93.24
2017-12-30T22:31:32.007Z,93.02
2017-12-30T22:33:59.210Z,91.98
2017-12-30T22:36:25.034Z,91.79
2017-12-30T22:38:53.490Z,91.74
2017-12-30T22:41:19.334Z,91.21
2017-12-30T22:46:15.896Z,90.87
2017-12-30T22:48:44.772Z,90.33
2017-12-30T22:51:10.601Z,90.44
2017-12-30T22:53:37.854Z,90.51
2017-12-30T22:56:03.661Z,90.51
2017-12-30T22:58:32.664Z,90.62
2017-12-30T23:01:04.555Z,91.00
2017-12-30T23:03:30.449Z,90.85
2017-12-30T23:05:56.258Z,91.25
2017-12-30T23:08:22.088Z,91.40
2017-12-30T23:10:47.963Z,91.49
2017-12-30T23:13:13.811Z,91.45
2017-12-30T23:15:39.615Z,91.94
2017-12-30T23:18:05.445Z,92.15
2017-12-30T23:20:34.812Z,92.53
2017-12-30T23:23:00.670Z,92.40
2017-12-30T23:25:28.242Z,91.94
2017-12-30T23:27:54.071Z,91.83
2017-12-30T23:30:20.669Z,91.93
2017-12-30T23:32:46.508Z,91.24
2017-12-30T23:35:12.346Z,90.58
2017-12-30T23:37:41.044Z,89.87
2017-12-30T23:40:06.868Z,89.36
2017-12-30T23:42:36.016Z,88.72
2017-12-30T23:45:01.872Z,88.04
2017-12-30T23:47:29.946Z,87.89
2017-12-30T23:49:55.770Z,87.63
2017-12-30T23:52:25.015Z,87.31
2017-12-30T23:54:50.863Z,87.05
2017-12-30T23:57:19.880Z,86.72
2017-12-30T23:59:45.700Z,86.12
